Time;durP1;ratioP1;P1;durP2;ratioP2;P2;SDS_P1;SDS_P2;PMS_P1;PMS_P2;Temp;Humidity;BMP_temperature;BMP_pressure;BME280_temperature;BME280_humidity;BME280_pressure;Samples;Min_cycle;Max_cycle;Signal;HPM_P1;HPM_P2
2021/06/19 00:02:22;;;;;;;14.68;13.50;;;24.60;99.90;;;;;;5121161;27;20207;-48
2021/06/19 00:04:49;;;;;;;15.07;13.98;;;24.50;99.90;;;;;;5125645;27;20189;-47
2021/06/19 00:07:15;;;;;;;15.95;14.68;;;24.50;99.90;;;;;;5121365;27;20654;-46
2021/06/19 00:09:43;;;;;;;16.63;15.13;;;24.60;99.90;;;;;;5123314;27;20196;-49
2021/06/19 00:12:10;;;;;;;15.60;14.30;;;24.60;99.90;;;;;;5122118;27;20208;-48
2021/06/19 00:14:37;;;;;;;16.58;14.88;;;24.60;99.90;;;;;;5118466;27;20708;-46
2021/06/19 00:17:04;;;;;;;16.63;15.25;;;24.60;99.90;;;;;;5110273;27;20205;-48
2021/06/19 00:19:31;;;;;;;15.85;14.25;;;24.60;99.90;;;;;;5122347;27;20781;-47
2021/06/19 00:21:57;;;;;;;16.83;15.10;;;24.60;99.90;;;;;;5124821;27;20208;-47
2021/06/19 00:24:24;;;;;;;15.85;14.45;;;24.70;99.90;;;;;;5121474;27;20184;-50
2021/06/19 00:26:55;;;;;;;15.40;14.05;;;24.70;99.90;;;;;;5124642;27;20191;-49
2021/06/19 00:29:22;;;;;;;15.90;14.50;;;24.70;99.90;;;;;;5114158;27;20291;-48
2021/06/19 00:31:48;;;;;;;16.20;14.80;;;24.60;99.90;;;;;;5111255;27;20208;-48
2021/06/19 00:34:15;;;;;;;15.45;14.18;;;24.70;99.90;;;;;;5121026;27;20551;-49
2021/06/19 00:36:42;;;;;;;13.63;12.63;;;24.60;99.90;;;;;;5121085;27;20567;-47
2021/06/19 00:39:09;;;;;;;15.38;14.10;;;24.60;99.90;;;;;;5120988;27;20196;-47
2021/06/19 00:41:36;;;;;;;15.73;14.38;;;24.50;99.90;;;;;;5123059;27;20216;-46
2021/06/19 00:44:04;;;;;;;15.98;14.48;;;24.40;99.90;;;;;;5117334;27;20208;-49
2021/06/19 00:46:31;;;;;;;16.90;15.27;;;24.40;99.90;;;;;;5108901;27;20188;-48
2021/06/19 00:48:58;;;;;;;16.73;15.13;;;24.40;99.90;;;;;;5120342;27;20224;-48
2021/06/19 00:51:24;;;;;;;16.10;14.73;;;24.40;99.90;;;;;;5120720;27;20205;-47
2021/06/19 00:53:51;;;;;;;15.55;14.02;;;24.40;99.90;;;;;;5116210;27;20195;-48
2021/06/19 00:56:20;;;;;;;17.90;14.48;;;24.30;99.90;;;;;;5120100;27;20262;-48
2021/06/19 00:58:46;;;;;;;14.77;13.35;;;24.30;99.90;;;;;;5121951;27;20560;-48
2021/06/19 01:01:14;;;;;;;15.85;14.40;;;24.20;99.90;;;;;;5103501;27;20599;-50
2021/06/19 01:03:42;;;;;;;15.27;14.05;;;24.20;99.90;;;;;;5123148;27;20204;-47
2021/06/19 01:06:09;;;;;;;15.80;14.38;;;24.20;99.90;;;;;;5120463;27;20550;-48
2021/06/19 01:08:36;;;;;;;15.52;14.43;;;24.10;99.90;;;;;;5123071;27;20219;-48
2021/06/19 01:11:02;;;;;;;18.63;16.90;;;24.00;99.90;;;;;;5122460;27;20219;-48
2021/06/19 01:13:30;;;;;;;16.67;15.15;;;23.90;99.90;;;;;;5122019;27;20181;-47
2021/06/19 01:15:58;;;;;;;16.73;15.05;;;23.90;99.90;;;;;;5117274;28;20204;-48
2021/06/19 01:18:26;;;;;;;17.13;15.35;;;23.90;99.90;;;;;;5105661;27;20910;-46
2021/06/19 01:20:53;;;;;;;17.92;16.30;;;23.70;99.90;;;;;;5123380;28;20188;-48
2021/06/19 01:23:20;;;;;;;16.60;15.30;;;23.70;99.90;;;;;;5119941;28;20823;-46
2021/06/19 01:25:48;;;;;;;16.95;15.57;;;23.60;99.90;;;;;;5124296;28;20203;-49
2021/06/19 01:28:15;;;;;;;17.33;15.93;;;23.60;99.90;;;;;;5120328;28;20230;-48
2021/06/19 01:30:41;;;;;;;16.20;15.00;;;23.60;99.90;;;;;;5105931;28;20212;-48
2021/06/19 01:33:08;;;;;;;16.67;15.25;;;23.60;99.90;;;;;;5094282;28;20195;-49
2021/06/19 01:35:36;;;;;;;17.83;16.23;;;23.60;99.90;;;;;;5106738;27;20199;-48
2021/06/19 01:38:05;;;;;;;15.77;14.35;;;23.60;99.90;;;;;;5122205;27;20192;-48
2021/06/19 01:40:32;;;;;;;15.63;14.20;;;23.50;99.90;;;;;;5121437;27;20278;-50
2021/06/19 01:43:01;;;;;;;15.70;14.18;;;23.50;99.90;;;;;;5122501;27;20211;-49
2021/06/19 01:45:29;;;;;;;16.95;15.48;;;23.50;99.90;;;;;;5096904;28;20249;-46
2021/06/19 01:47:59;;;;;;;17.77;16.15;;;23.40;99.90;;;;;;5105644;28;20194;-50
2021/06/19 01:50:25;;;;;;;15.75;14.40;;;23.40;99.90;;;;;;5114309;27;20227;-46
2021/06/19 01:52:53;;;;;;;16.73;15.32;;;23.40;99.90;;;;;;5127639;27;20697;-49
2021/06/19 01:55:21;;;;;;;17.97;16.40;;;23.30;99.90;;;;;;5123757;27;20180;-47
2021/06/19 01:57:51;;;;;;;18.20;16.70;;;23.20;99.90;;;;;;5127971;27;20670;-50
2021/06/19 02:00:21;;;;;;;16.83;15.30;;;23.20;99.90;;;;;;5122996;27;20191;-49
2021/06/19 02:02:48;;;;;;;17.63;16.13;;;23.10;99.90;;;;;;5122414;27;20220;-53
2021/06/19 02:05:16;;;;;;;19.13;17.33;;;23.10;99.90;;;;;;5109792;27;20205;-48
2021/06/19 02:07:47;;;;;;;19.70;17.95;;;23.00;99.90;;;;;;5127517;27;20283;-48
2021/06/19 02:10:15;;;;;;;18.95;17.35;;;23.00;99.90;;;;;;5123327;27;20211;-51
2021/06/19 02:12:42;;;;;;;18.63;16.90;;;23.00;99.90;;;;;;5127855;27;20208;-49
2021/06/19 02:15:09;;;;;;;18.15;16.35;;;23.00;99.90;;;;;;5124953;27;20650;-48
2021/06/19 02:17:38;;;;;;;20.25;18.35;;;23.00;99.90;;;;;;5120932;27;20266;-48
2021/06/19 02:20:07;;;;;;;19.40;17.70;;;23.00;99.90;;;;;;5111265;27;20697;-48
2021/06/19 02:22:34;;;;;;;20.20;18.30;;;22.90;99.90;;;;;;5125398;27;21136;-47
2021/06/19 02:25:01;;;;;;;18.80;17.15;;;22.90;99.90;;;;;;5125067;27;20181;-49
2021/06/19 02:27:28;;;;;;;19.27;17.55;;;22.90;99.90;;;;;;5124598;27;20185;-48
2021/06/19 02:29:54;;;;;;;18.73;17.17;;;22.80;99.90;;;;;;5126664;27;20227;-51
2021/06/19 02:32:21;;;;;;;19.27;17.67;;;22.80;99.90;;;;;;5116715;27;20216;-50
2021/06/19 02:34:49;;;;;;;19.50;17.58;;;22.70;99.90;;;;;;5104773;28;20654;-49
2021/06/19 02:37:16;;;;;;;18.90;17.23;;;22.60;99.90;;;;;;5102346;27;20577;-46
2021/06/19 02:39:42;;;;;;;19.60;18.00;;;22.60;99.90;;;;;;5126357;27;20189;-49
2021/06/19 02:42:09;;;;;;;20.77;19.00;;;22.60;99.90;;;;;;5124393;27;20211;-46
2021/06/19 02:44:36;;;;;;;20.02;18.33;;;22.50;99.90;;;;;;5125856;27;20187;-48
2021/06/19 02:47:03;;;;;;;19.30;17.70;;;22.50;99.90;;;;;;5125520;27;20212;-49
2021/06/19 02:49:30;;;;;;;21.83;19.75;;;22.50;99.90;;;;;;5118419;27;20839;-46
2021/06/19 02:51:58;;;;;;;20.97;19.10;;;22.60;99.90;;;;;;5113033;27;20261;-47
2021/06/19 02:54:25;;;;;;;21.30;19.40;;;22.50;99.90;;;;;;5123067;27;20369;-48
2021/06/19 02:56:52;;;;;;;20.23;18.50;;;22.50;99.90;;;;;;5126616;27;20197;-49
2021/06/19 02:59:18;;;;;;;20.90;19.10;;;22.50;99.90;;;;;;5120589;27;20180;-51
2021/06/19 03:01:45;;;;;;;21.60;19.37;;;22.40;99.90;;;;;;5126597;27;20219;-49
2021/06/19 03:04:13;;;;;;;18.10;16.70;;;22.40;99.90;;;;;;5109971;27;20259;-46
2021/06/19 03:06:39;;;;;;;18.73;17.13;;;22.50;99.90;;;;;;5105280;27;20288;-49
2021/06/19 03:09:09;;;;;;;19.77;18.07;;;22.50;99.90;;;;;;5121758;27;20200;-49
2021/06/19 03:11:35;;;;;;;20.70;19.10;;;22.50;99.90;;;;;;5125047;27;20204;-50
2021/06/19 03:14:02;;;;;;;21.80;19.57;;;22.50;99.90;;;;;;5123966;27;20216;-48
2021/06/19 03:16:29;;;;;;;18.25;16.65;;;22.50;99.90;;;;;;5123498;27;20180;-52
2021/06/19 03:18:55;;;;;;;19.60;18.00;;;22.50;99.90;;;;;;5125249;27;20717;-49
2021/06/19 03:21:22;;;;;;;18.53;17.10;;;22.50;99.90;;;;;;5103175;27;20228;-49
2021/06/19 03:23:49;;;;;;;20.57;18.87;;;22.50;99.90;;;;;;5125953;27;20185;-48
2021/06/19 03:26:17;;;;;;;21.83;19.95;;;22.50;99.90;;;;;;5121494;27;20203;-49
2021/06/19 03:28:43;;;;;;;22.02;20.13;;;22.50;99.90;;;;;;5125389;27;20204;-49
2021/06/19 03:31:10;;;;;;;22.63;20.63;;;22.50;99.90;;;;;;5123297;27;20227;-50
2021/06/19 03:33:36;;;;;;;21.23;19.53;;;22.50;99.90;;;;;;5124910;27;20191;-50
2021/06/19 03:36:03;;;;;;;23.10;21.00;;;22.50;99.90;;;;;;5110664;27;20216;-46
2021/06/19 03:38:30;;;;;;;20.98;19.02;;;22.50;99.90;;;;;;5115936;27;20199;-51
2021/06/19 03:40:57;;;;;;;22.00;19.85;;;22.50;99.90;;;;;;5124906;27;21814;-51
2021/06/19 03:43:24;;;;;;;20.02;18.02;;;22.60;99.90;;;;;;5122096;27;20818;-51
2021/06/19 03:45:51;;;;;;;20.50;18.67;;;22.60;99.90;;;;;;5125882;27;20196;-52
2021/06/19 03:48:18;;;;;;;19.37;17.73;;;22.60;99.90;;;;;;5121736;27;20180;-47
2021/06/19 03:50:45;;;;;;;21.30;19.33;;;22.70;99.90;;;;;;5124736;27;20223;-49
2021/06/19 03:53:11;;;;;;;20.15;18.35;;;22.70;99.90;;;;;;5103357;27;20219;-50
2021/06/19 03:55:38;;;;;;;21.53;19.57;;;22.70;99.90;;;;;;5124459;27;20187;-48
2021/06/19 03:58:05;;;;;;;21.23;19.43;;;22.70;99.90;;;;;;5123784;27;20192;-47
2021/06/19 04:00:33;;;;;;;20.80;19.00;;;22.70;99.90;;;;;;5119791;27;20181;-46
2021/06/19 04:03:01;;;;;;;17.70;16.27;;;22.80;99.90;;;;;;5126030;27;20231;-50
2021/06/19 04:05:27;;;;;;;20.83;19.07;;;22.80;99.90;;;;;;5122809;27;20206;-51
2021/06/19 04:07:54;;;;;;;21.73;19.73;;;22.90;99.90;;;;;;5104959;27;20585;-46
2021/06/19 04:10:22;;;;;;;19.90;18.05;;;22.90;99.90;;;;;;5118747;27;20205;-50
2021/06/19 04:12:49;;;;;;;21.43;19.63;;;23.00;99.90;;;;;;5129356;27;20208;-49
2021/06/19 04:15:16;;;;;;;22.27;20.23;;;23.00;99.90;;;;;;5117883;27;20258;-47
2021/06/19 04:17:45;;;;;;;20.70;19.02;;;23.00;99.90;;;;;;5121063;27;20200;-49
2021/06/19 04:20:14;;;;;;;22.60;20.63;;;23.10;99.90;;;;;;5131540;27;20195;-50
2021/06/19 04:22:42;;;;;;;21.42;19.65;;;23.10;99.90;;;;;;5114713;27;20232;-50
2021/06/19 04:25:10;;;;;;;21.23;19.52;;;23.10;99.90;;;;;;5138002;27;20191;-51
2021/06/19 04:27:42;;;;;;;22.55;20.75;;;23.10;99.90;;;;;;5122676;27;20558;-51
2021/06/19 04:30:12;;;;;;;23.73;21.65;;;23.20;99.90;;;;;;5121861;27;20299;-46
2021/06/19 04:32:39;;;;;;;21.67;20.00;;;23.20;99.90;;;;;;5124429;27;20227;-47
2021/06/19 04:35:09;;;;;;;20.48;18.77;;;23.20;99.90;;;;;;5118335;27;20196;-49
2021/06/19 04:37:36;;;;;;;20.27;18.42;;;23.30;99.90;;;;;;5106041;27;20236;-47
2021/06/19 04:40:08;;;;;;;22.95;21.05;;;23.30;99.90;;;;;;5126948;27;20189;-46
2021/06/19 04:42:38;;;;;;;21.45;19.27;;;23.30;99.90;;;;;;5127769;27;20251;-48
2021/06/19 04:45:06;;;;;;;22.23;20.27;;;23.30;99.90;;;;;;5122755;27;20205;-49
2021/06/19 04:47:34;;;;;;;21.83;19.92;;;23.30;99.90;;;;;;5134258;27;20256;-52
2021/06/19 04:50:01;;;;;;;19.77;18.17;;;23.40;99.90;;;;;;5143409;27;20223;-48
2021/06/19 04:52:32;;;;;;;19.15;17.50;;;23.40;99.90;;;;;;5123270;27;20270;-47
2021/06/19 04:54:58;;;;;;;19.88;18.25;;;23.40;99.90;;;;;;5123032;27;20595;-48
2021/06/19 04:57:26;;;;;;;22.65;20.75;;;23.40;99.90;;;;;;5111929;27;20214;-47
2021/06/19 04:59:53;;;;;;;22.35;20.45;;;23.40;99.90;;;;;;5123762;27;20566;-49
2021/06/19 05:02:20;;;;;;;24.67;22.48;;;23.40;99.90;;;;;;5120361;27;20205;-46
2021/06/19 05:04:46;;;;;;;25.77;23.50;;;23.50;99.90;;;;;;5124429;27;20189;-46
2021/06/19 05:07:13;;;;;;;24.33;22.23;;;23.50;99.90;;;;;;5120482;27;20746;-49
2021/06/19 05:09:42;;;;;;;25.02;22.95;;;23.60;99.90;;;;;;5107802;27;20218;-46
2021/06/19 05:12:10;;;;;;;28.33;25.33;;;23.60;99.90;;;;;;5121859;27;20216;-47
2021/06/19 05:14:37;;;;;;;26.83;24.15;;;23.70;99.90;;;;;;5123276;27;20188;-46
2021/06/19 05:17:04;;;;;;;29.00;26.50;;;23.80;99.90;;;;;;5122834;27;20191;-49
2021/06/19 05:19:31;;;;;;;27.52;24.88;;;23.80;99.90;;;;;;5121282;28;20179;-47
2021/06/19 05:21:58;;;;;;;27.45;24.80;;;23.90;99.90;;;;;;5124450;27;20216;-50
2021/06/19 05:24:25;;;;;;;28.67;25.92;;;23.90;99.90;;;;;;5110107;27;20544;-48
2021/06/19 05:26:53;;;;;;;29.27;26.58;;;24.00;99.90;;;;;;5128329;27;20231;-49
2021/06/19 05:29:20;;;;;;;28.73;25.90;;;24.10;99.90;;;;;;5123685;27;20216;-52
2021/06/19 05:31:47;;;;;;;29.15;26.50;;;24.20;99.90;;;;;;5128634;27;20667;-46
2021/06/19 05:34:14;;;;;;;29.73;26.83;;;24.30;99.90;;;;;;5124692;27;20192;-46
2021/06/19 05:36:40;;;;;;;27.95;25.13;;;24.40;99.90;;;;;;5126086;27;20188;-46
2021/06/19 05:39:07;;;;;;;27.20;24.80;;;24.50;99.90;;;;;;5125095;27;20208;-50
2021/06/19 05:41:35;;;;;;;27.23;24.52;;;24.60;99.90;;;;;;5111728;27;20219;-49
2021/06/19 05:44:07;;;;;;;27.17;24.83;;;24.70;99.90;;;;;;5127035;27;20199;-47
2021/06/19 05:46:34;;;;;;;25.35;22.85;;;24.70;99.90;;;;;;5126475;27;20905;-50
2021/06/19 05:49:01;;;;;;;26.00;23.45;;;24.70;99.90;;;;;;5126395;27;20184;-48
2021/06/19 05:51:27;;;;;;;25.33;23.02;;;24.80;99.90;;;;;;5124876;27;20209;-47
2021/06/19 05:53:54;;;;;;;24.92;22.55;;;25.00;99.90;;;;;;5127843;27;20805;-47
2021/06/19 05:56:20;;;;;;;23.08;21.10;;;25.10;99.90;;;;;;5106882;27;20208;-47
2021/06/19 05:58:47;;;;;;;23.17;21.08;;;25.20;99.90;;;;;;5127159;27;20189;-50
2021/06/19 06:01:15;;;;;;;23.08;20.73;;;25.30;99.90;;;;;;5124184;27;20713;-49
2021/06/19 06:03:42;;;;;;;22.30;19.33;;;25.50;99.90;;;;;;5127790;27;20570;-47
2021/06/19 06:06:09;;;;;;;22.08;19.88;;;25.50;99.90;;;;;;5124954;27;20193;-47
2021/06/19 06:08:35;;;;;;;21.42;19.52;;;25.60;99.90;;;;;;5125231;27;20184;-47
2021/06/19 06:11:02;;;;;;;22.55;20.17;;;25.60;99.90;;;;;;5120971;27;20216;-49
2021/06/19 06:13:29;;;;;;;21.90;19.92;;;25.60;99.90;;;;;;5115918;27;20200;-49
2021/06/19 06:15:55;;;;;;;22.45;20.35;;;25.60;99.90;;;;;;5127439;27;20366;-50
2021/06/19 06:18:23;;;;;;;25.42;22.55;;;25.60;99.90;;;;;;5123497;27;20222;-47
2021/06/19 06:20:50;;;;;;;24.38;21.98;;;25.50;99.90;;;;;;5126262;27;20195;-46
2021/06/19 06:23:17;;;;;;;22.38;20.20;;;25.50;99.90;;;;;;5122521;27;20188;-48
2021/06/19 06:25:44;;;;;;;22.17;19.83;;;25.40;99.90;;;;;;5126900;27;20188;-46
2021/06/19 06:28:10;;;;;;;24.00;21.42;;;25.40;99.90;;;;;;5109629;27;20257;-48
2021/06/19 06:30:37;;;;;;;23.20;20.90;;;25.40;99.90;;;;;;5112411;27;20890;-47
2021/06/19 06:33:04;;;;;;;21.92;19.88;;;25.50;99.90;;;;;;5132936;27;20232;-51
2021/06/19 06:35:32;;;;;;;22.20;19.90;;;25.50;99.90;;;;;;5119502;27;20209;-48
2021/06/19 06:37:59;;;;;;;21.00;18.77;;;25.50;99.90;;;;;;5121579;27;20268;-51
2021/06/19 06:40:26;;;;;;;22.58;19.20;;;25.50;99.90;;;;;;5128459;27;20196;-50
2021/06/19 06:42:52;;;;;;;20.83;18.70;;;25.50;99.90;;;;;;5121165;27;20520;-50
2021/06/19 06:45:19;;;;;;;21.10;17.25;;;25.60;99.90;;;;;;5129478;27;20301;-48
2021/06/19 06:47:46;;;;;;;20.67;18.58;;;25.70;99.90;;;;;;5128748;27;20852;-47
2021/06/19 06:50:13;;;;;;;18.13;16.38;;;25.70;99.90;;;;;;5130698;27;20212;-46
2021/06/19 06:52:41;;;;;;;17.45;15.68;;;25.70;99.90;;;;;;5123537;27;20208;-45
2021/06/19 06:55:09;;;;;;;16.88;14.82;;;25.70;99.90;;;;;;5120722;27;20565;-48
2021/06/19 06:57:36;;;;;;;15.98;13.93;;;25.70;99.90;;;;;;5131660;27;20870;-48
2021/06/19 07:00:04;;;;;;;15.20;13.25;;;25.80;99.90;;;;;;5119404;27;20204;-52
2021/06/19 07:02:31;;;;;;;15.07;12.40;;;25.90;99.90;;;;;;5129631;27;20208;-48
2021/06/19 07:04:58;;;;;;;12.10;10.73;;;26.00;99.90;;;;;;5143329;27;20196;-52
2021/06/19 07:07:24;;;;;;;11.68;10.52;;;26.10;99.90;;;;;;5108380;27;20191;-48
2021/06/19 07:09:52;;;;;;;11.32;9.73;;;26.20;99.90;;;;;;5127363;27;20208;-48
2021/06/19 07:12:19;;;;;;;11.57;9.55;;;26.20;99.90;;;;;;5133983;27;20224;-51
2021/06/19 07:14:45;;;;;;;9.75;8.85;;;26.30;99.90;;;;;;5122206;27;20216;-51
2021/06/19 07:17:12;;;;;;;9.00;8.20;;;26.40;99.90;;;;;;5137514;27;20199;-49
2021/06/19 07:19:40;;;;;;;8.80;7.80;;;26.40;99.90;;;;;;5129752;27;20293;-51
2021/06/19 07:22:07;;;;;;;8.18;7.47;;;26.50;99.90;;;;;;5129413;27;20255;-50
2021/06/19 07:24:34;;;;;;;7.35;6.65;;;26.60;99.90;;;;;;5134722;27;20188;-51
2021/06/19 07:27:02;;;;;;;7.65;6.75;;;26.60;99.90;;;;;;5138620;27;20191;-49
2021/06/19 07:29:29;;;;;;;8.80;7.32;;;26.60;99.90;;;;;;5123941;27;20228;-54
2021/06/19 07:31:55;;;;;;;9.65;7.85;;;26.70;99.90;;;;;;5125923;27;20209;-50
2021/06/19 07:34:22;;;;;;;7.43;6.82;;;26.70;99.90;;;;;;5121904;27;20189;-51
2021/06/19 07:36:49;;;;;;;8.88;8.07;;;26.80;99.90;;;;;;5120668;27;20279;-51
2021/06/19 07:39:15;;;;;;;9.68;8.38;;;26.80;99.90;;;;;;5121276;27;20573;-50
2021/06/19 07:41:42;;;;;;;10.15;6.47;;;26.90;99.90;;;;;;5124163;27;20201;-51
2021/06/19 07:44:11;;;;;;;5.85;4.75;;;26.90;99.90;;;;;;5124963;27;20547;-50
2021/06/19 07:46:38;;;;;;;7.63;5.43;;;27.00;99.90;;;;;;5100188;27;20662;-47
2021/06/19 07:49:04;;;;;;;6.32;5.50;;;27.00;99.90;;;;;;5122245;27;20205;-50
2021/06/19 07:51:31;;;;;;;4.47;4.18;;;26.90;99.90;;;;;;5115982;27;20224;-47
2021/06/19 07:53:58;;;;;;;5.47;4.32;;;26.90;99.90;;;;;;5100246;27;20679;-48
2021/06/19 07:56:25;;;;;;;4.85;3.88;;;26.90;99.90;;;;;;5112440;27;20192;-52
2021/06/19 07:58:52;;;;;;;6.63;3.90;;;27.00;99.90;;;;;;5124935;27;20202;-51
2021/06/19 08:01:20;;;;;;;8.05;3.85;;;27.00;99.90;;;;;;5105775;27;20226;-48
2021/06/19 08:03:47;;;;;;;4.30;2.90;;;27.00;99.30;;;;;;5125257;27;20193;-47
2021/06/19 08:06:14;;;;;;;5.72;2.92;;;27.00;98.10;;;;;;5121197;27;20271;-49
2021/06/19 08:08:40;;;;;;;4.78;2.35;;;27.10;97.80;;;;;;5104201;27;20205;-52
2021/06/19 08:11:07;;;;;;;2.40;2.20;;;27.20;96.90;;;;;;5118870;27;20229;-49
2021/06/19 08:13:34;;;;;;;5.65;2.42;;;27.20;95.90;;;;;;5122257;27;20567;-48
2021/06/19 08:16:03;;;;;;;2.67;2.33;;;27.10;95.20;;;;;;5129069;27;20197;-51
2021/06/19 08:18:31;;;;;;;2.70;2.40;;;27.20;95.10;;;;;;5110329;27;20279;-48
2021/06/19 08:20:58;;;;;;;3.28;2.50;;;27.20;94.90;;;;;;5110088;27;20193;-50
2021/06/19 08:23:25;;;;;;;3.00;2.80;;;27.30;95.00;;;;;;5116828;27;21389;-54
2021/06/19 08:25:51;;;;;;;3.50;2.38;;;27.40;94.50;;;;;;5115928;27;20284;-52
2021/06/19 08:28:18;;;;;;;2.85;2.42;;;27.40;94.60;;;;;;5125149;27;20188;-49
2021/06/19 08:30:45;;;;;;;2.65;1.98;;;27.50;93.80;;;;;;5129841;27;20310;-54
2021/06/19 08:33:11;;;;;;;2.90;2.33;;;27.60;93.40;;;;;;5090950;27;20206;-50
2021/06/19 08:35:39;;;;;;;4.35;2.38;;;27.70;92.80;;;;;;5129853;27;20212;-53
2021/06/19 08:38:06;;;;;;;2.53;2.30;;;27.50;92.70;;;;;;5135584;27;20295;-49
2021/06/19 08:40:35;;;;;;;1.90;1.80;;;27.60;92.50;;;;;;5122708;27;20199;-48
2021/06/19 08:43:02;;;;;;;2.45;2.28;;;27.60;92.00;;;;;;5134787;27;20235;-50
2021/06/19 08:45:32;;;;;;;2.22;2.03;;;27.50;91.70;;;;;;5135286;27;20192;-49
2021/06/19 08:47:59;;;;;;;1.70;1.60;;;27.60;92.10;;;;;;5128991;27;20203;-52
2021/06/19 08:50:27;;;;;;;2.08;1.83;;;27.70;91.50;;;;;;5126123;27;20204;-48
2021/06/19 08:52:55;;;;;;;3.80;1.95;;;27.60;91.50;;;;;;5128101;27;20228;-50
2021/06/19 08:55:22;;;;;;;1.73;1.58;;;27.70;91.40;;;;;;5131302;27;20207;-53
2021/06/19 08:57:48;;;;;;;3.63;2.08;;;27.80;91.40;;;;;;5127626;27;20230;-52
2021/06/19 09:00:17;;;;;;;4.20;2.03;;;27.90;91.20;;;;;;5120060;27;20188;-48
2021/06/19 09:02:46;;;;;;;3.67;2.25;;;27.90;90.90;;;;;;5124437;27;20213;-50
2021/06/19 09:05:14;;;;;;;4.68;2.50;;;27.80;90.90;;;;;;5096842;27;20215;-49
2021/06/19 09:07:43;;;;;;;2.60;2.08;;;27.60;91.00;;;;;;5116852;27;20656;-48
2021/06/19 09:10:26;;;;;;;2.53;2.30;;;27.70;91.20;;;;;;5113189;27;20224;-51
2021/06/19 09:13:08;;;;;;;4.70;2.25;;;27.90;90.70;;;;;;5107321;27;20238;-54
2021/06/19 09:15:37;;;;;;;2.85;2.47;;;28.10;90.40;;;;;;5123782;27;20192;-51
2021/06/19 09:18:13;;;;;;;2.90;2.70;;;28.10;90.00;;;;;;5129125;27;20197;-51
2021/06/19 09:20:47;;;;;;;2.50;2.25;;;28.10;89.40;;;;;;5109956;27;20203;-50
2021/06/19 09:23:14;;;;;;;5.03;2.70;;;28.10;89.10;;;;;;5134766;27;20336;-54
2021/06/19 09:25:42;;;;;;;2.47;2.33;;;28.20;89.60;;;;;;5124626;27;20211;-50
2021/06/19 09:28:10;;;;;;;3.53;2.50;;;28.10;88.00;;;;;;5115234;28;20209;-49
2021/06/19 09:30:38;;;;;;;4.05;2.78;;;28.10;88.10;;;;;;5123470;28;20219;-52
2021/06/19 09:33:07;;;;;;;5.40;2.55;;;28.20;89.10;;;;;;5121613;27;20227;-54
2021/06/19 09:35:35;;;;;;;2.70;2.20;;;28.30;88.20;;;;;;5123292;27;20650;-48
2021/06/19 09:38:04;;;;;;;3.35;2.50;;;28.30;88.60;;;;;;5102270;27;20265;-49
2021/06/19 09:40:33;;;;;;;2.75;2.35;;;28.00;87.90;;;;;;5130921;27;20385;-48
2021/06/19 09:43:13;;;;;;;2.92;1.88;;;27.90;87.20;;;;;;5131834;27;20223;-53
2021/06/19 09:45:42;;;;;;;2.10;2.00;;;27.90;85.30;;;;;;5102755;28;20573;-51
2021/06/19 09:48:24;;;;;;;4.10;1.92;;;27.90;86.00;;;;;;5100013;28;20194;-51
2021/06/19 09:51:12;;;;;;;2.47;2.28;;;27.90;85.10;;;;;;5102829;28;20573;-53
2021/06/19 09:53:39;;;;;;;2.35;2.10;;;27.90;86.50;;;;;;5097167;28;20208;-52
2021/06/19 09:56:07;;;;;;;3.83;2.42;;;27.80;86.80;;;;;;5111888;28;20197;-53
2021/06/19 09:58:40;;;;;;;2.67;2.15;;;27.90;86.90;;;;;;5120965;28;20236;-51
2021/06/19 10:01:07;;;;;;;3.53;2.38;;;27.80;86.40;;;;;;5115086;28;20220;-49
2021/06/19 10:03:57;;;;;;;2.65;2.05;;;27.80;85.60;;;;;;5122900;27;20545;-49
2021/06/19 10:06:24;;;;;;;2.10;2.00;;;27.90;84.70;;;;;;5120873;28;20177;-48
2021/06/19 10:08:52;;;;;;;2.65;2.00;;;28.00;83.70;;;;;;5104778;27;20202;-51
2021/06/19 10:11:21;;;;;;;3.65;1.90;;;28.00;84.20;;;;;;5115632;27;20216;-54
2021/06/19 10:13:49;;;;;;;2.55;2.17;;;28.20;85.00;;;;;;5107291;28;20201;-51
2021/06/19 10:16:17;;;;;;;2.38;2.17;;;28.20;84.60;;;;;;5099307;27;20260;-52
2021/06/19 10:18:45;;;;;;;1.85;1.75;;;28.10;84.50;;;;;;5106314;28;20246;-48
2021/06/19 10:21:14;;;;;;;2.22;2.13;;;28.00;84.40;;;;;;5102272;28;20290;-52
2021/06/19 10:23:41;;;;;;;4.47;2.28;;;27.80;84.50;;;;;;5107029;28;20200;-50
2021/06/19 10:26:08;;;;;;;2.85;2.08;;;27.70;84.40;;;;;;5097913;27;20232;-50
2021/06/19 10:28:41;;;;;;;2.17;1.98;;;27.80;84.00;;;;;;5118919;27;20219;-50
2021/06/19 10:31:10;;;;;;;2.70;2.35;;;27.90;82.70;;;;;;5110624;27;20229;-51
2021/06/19 10:33:36;;;;;;;3.47;2.22;;;27.70;82.50;;;;;;5106523;28;20240;-52
2021/06/19 10:36:05;;;;;;;2.80;2.60;;;27.80;82.20;;;;;;5104170;28;20659;-49
2021/06/19 10:38:45;;;;;;;2.53;2.33;;;27.70;82.00;;;;;;5105761;28;20682;-48
2021/06/19 10:41:12;;;;;;;3.25;2.40;;;27.70;82.00;;;;;;5097248;27;20216;-50
2021/06/19 10:43:43;;;;;;;2.95;2.65;;;27.80;82.10;;;;;;5114401;27;20192;-48
2021/06/19 10:46:38;;;;;;;2.63;2.40;;;27.90;81.10;;;;;;5137467;27;20203;-50
2021/06/19 10:49:35;;;;;;;3.17;2.72;;;27.80;82.10;;;;;;5080302;27;20209;-51
2021/06/19 10:52:24;;;;;;;2.22;2.13;;;27.80;81.70;;;;;;5123609;27;20217;-51
2021/06/19 10:55:26;;;;;;;2.78;2.20;;;27.90;81.90;;;;;;5126018;27;20199;-51
2021/06/19 10:57:59;;;;;;;2.83;2.63;;;27.80;80.80;;;;;;5121315;27;20238;-54
2021/06/19 11:00:43;;;;;;;3.22;2.17;;;27.70;81.40;;;;;;5117397;27;20204;-48
2021/06/19 11:03:11;;;;;;;2.25;2.05;;;27.70;82.90;;;;;;5116867;27;20272;-51
2021/06/19 11:05:58;;;;;;;2.30;2.20;;;27.80;82.30;;;;;;5125456;27;20219;-49
2021/06/19 11:08:26;;;;;;;1.95;1.73;;;27.80;82.20;;;;;;5123473;27;20196;-50
2021/06/19 11:11:00;;;;;;;2.15;2.05;;;27.70;81.30;;;;;;5102927;27;20225;-51
2021/06/19 11:13:49;;;;;;;2.63;2.35;;;27.90;80.70;;;;;;5107501;27;20250;-47
2021/06/19 11:16:44;;;;;;;2.15;1.92;;;27.80;81.00;;;;;;5111553;27;20177;-49
2021/06/19 11:19:31;;;;;;;1.95;1.85;;;28.10;80.60;;;;;;5113550;27;20212;-52
2021/06/19 11:22:25;;;;;;;2.38;1.30;;;28.20;80.60;;;;;;5133165;27;20296;-49
2021/06/19 11:25:14;;;;;;;2.50;1.52;;;28.30;80.20;;;;;;5103407;28;20177;-50
2021/06/19 11:27:58;;;;;;;2.33;1.98;;;28.20;79.00;;;;;;5108364;27;20197;-49
2021/06/19 11:30:52;;;;;;;2.10;1.70;;;28.00;78.10;;;;;;5100728;27;20288;-48
2021/06/19 11:33:44;;;;;;;1.65;1.55;;;28.20;78.40;;;;;;5090663;27;20221;-49
2021/06/19 11:36:36;;;;;;;2.15;1.65;;;28.20;78.20;;;;;;5101295;27;20330;-48
2021/06/19 11:39:08;;;;;;;1.67;1.58;;;28.10;79.00;;;;;;5106628;27;20208;-51
2021/06/19 11:41:37;;;;;;;2.95;1.60;;;28.30;79.70;;;;;;5116818;27;20554;-50
2021/06/19 11:44:11;;;;;;;2.60;1.77;;;28.30;78.00;;;;;;5130901;27;20201;-51
2021/06/19 11:46:37;;;;;;;3.05;1.83;;;28.10;79.00;;;;;;5123693;27;20979;-47
2021/06/19 11:49:08;;;;;;;2.72;1.73;;;28.30;78.60;;;;;;5106628;27;20209;-51
2021/06/19 11:51:36;;;;;;;2.92;1.98;;;28.40;78.00;;;;;;5100133;28;20207;-48
2021/06/19 11:54:03;;;;;;;1.67;1.52;;;28.30;78.00;;;;;;5104017;28;20190;-50
2021/06/19 11:56:31;;;;;;;3.83;1.98;;;28.50;78.30;;;;;;5092190;27;20234;-53
2021/06/19 11:59:00;;;;;;;1.90;1.80;;;28.60;77.60;;;;;;5130221;27;20215;-48
2021/06/19 12:01:31;;;;;;;3.53;1.77;;;28.50;76.90;;;;;;5121811;27;20215;-50
2021/06/19 12:04:00;;;;;;;2.00;1.80;;;28.40;75.30;;;;;;5134523;27;20208;-50
2021/06/19 12:06:31;;;;;;;1.73;1.50;;;28.30;75.80;;;;;;5119949;27;20212;-52
2021/06/19 12:08:59;;;;;;;2.55;1.60;;;28.30;74.90;;;;;;5124064;27;20666;-51
2021/06/19 12:11:28;;;;;;;1.77;1.67;;;28.40;74.20;;;;;;5121517;27;20220;-54
2021/06/19 12:13:54;;;;;;;2.00;1.80;;;28.50;75.00;;;;;;5101666;27;20212;-55
2021/06/19 12:16:29;;;;;;;2.10;1.70;;;28.70;74.90;;;;;;5106994;27;20205;-51
2021/06/19 12:19:00;;;;;;;1.77;1.67;;;28.80;74.20;;;;;;5092144;27;20215;-54
2021/06/19 12:21:32;;;;;;;1.60;1.60;;;29.00;73.60;;;;;;5103648;28;20421;-47
2021/06/19 12:24:03;;;;;;;4.00;2.15;;;29.00;74.20;;;;;;5094443;27;20201;-51
2021/06/19 12:26:30;;;;;;;1.88;1.67;;;29.20;73.40;;;;;;5103807;28;20201;-51
2021/06/19 12:28:56;;;;;;;2.83;1.65;;;29.20;73.40;;;;;;5099883;27;20223;-51
2021/06/19 12:31:26;;;;;;;1.70;1.60;;;29.10;72.40;;;;;;5112985;27;20224;-52
2021/06/19 12:33:59;;;;;;;2.60;2.15;;;29.30;72.10;;;;;;5121134;27;20195;-51
2021/06/19 12:36:26;;;;;;;1.63;1.52;;;29.50;70.60;;;;;;5117125;27;20211;-50
2021/06/19 12:38:53;;;;;;;1.67;1.60;;;29.50;69.60;;;;;;5104034;27;20205;-48
2021/06/19 12:41:21;;;;;;;3.55;1.67;;;29.50;69.10;;;;;;5116716;27;20220;-49
2021/06/19 12:43:48;;;;;;;1.60;1.50;;;29.50;69.20;;;;;;5116399;27;20196;-51
2021/06/19 12:46:20;;;;;;;1.38;1.38;;;29.60;69.60;;;;;;5102459;27;20250;-48